Time;durP1;ratioP1;P1;durP2;ratioP2;P2;SDS_P1;SDS_P2;PMS_P1;PMS_P2;Temp;Humidity;BMP_temperature;BMP_pressure;BME280_temperature;BME280_humidity;BME280_pressure;Samples;Min_cycle;Max_cycle;Signal;HPM_P1;HPM_P2
2022/01/07 00:00:00;;;;;;;;;;;4.30;99.90;;;;;;5051008;28;19912;-70
2022/01/07 00:02:25;;;;;;;;;;;4.30;99.90;;;;;;5051711;28;20384;-70
2022/01/07 00:04:51;;;;;;;;;;;4.30;99.90;;;;;;5022732;28;19921;-70
2022/01/07 00:07:16;;;;;;;;;;;4.40;99.90;;;;;;5024157;28;19913;-69
2022/01/07 00:09:42;;;;;;;;;;;4.40;99.90;;;;;;5009996;28;20359;-69
2022/01/07 00:12:08;;;;;;;;;;;4.40;99.90;;;;;;5024694;28;19909;-67
2022/01/07 00:14:33;;;;;;;;;;;4.40;99.90;;;;;;5030065;28;20377;-70
2022/01/07 00:16:59;;;;;;;;;;;4.50;99.90;;;;;;5016506;28;20000;-73
2022/01/07 00:19:24;;;;;;;;;;;4.50;99.90;;;;;;5047779;28;20134;-72
2022/01/07 00:21:50;;;;;;;;;;;4.50;99.90;;;;;;5049264;28;20374;-70
2022/01/07 00:24:15;;;;;;;;;;;4.50;99.90;;;;;;5053107;28;19917;-72
2022/01/07 00:26:41;;;;;;;;;;;4.50;99.90;;;;;;5039108;28;19913;-69
2022/01/07 00:29:06;;;;;;;;;;;4.50;99.90;;;;;;5052302;28;19927;-69
2022/01/07 00:31:32;;;;;;;;;;;4.50;99.90;;;;;;5053768;28;19908;-69
2022/01/07 00:33:57;;;;;;;;;;;4.50;99.90;;;;;;5034473;28;19917;-73
2022/01/07 00:36:23;;;;;;;;;;;4.60;99.90;;;;;;5028872;28;20000;-69
2022/01/07 00:38:48;;;;;;;;;;;4.50;99.90;;;;;;5029289;28;19973;-70
2022/01/07 00:41:14;;;;;;;;;;;4.60;99.90;;;;;;5031015;28;19913;-69
2022/01/07 00:43:39;;;;;;;;;;;4.60;99.90;;;;;;5032900;28;19920;-70
2022/01/07 00:46:05;;;;;;;;;;;4.60;99.90;;;;;;5029339;28;19975;-70
2022/01/07 00:48:33;;;;;;;;;;;4.60;99.90;;;;;;5030472;28;19944;-75
2022/01/07 00:50:59;;;;;;;;;;;4.60;99.90;;;;;;5047986;28;19909;-69
2022/01/07 00:53:24;;;;;;;;;;;4.60;99.90;;;;;;5047565;28;20270;-70
2022/01/07 00:55:50;;;;;;;;;;;4.50;99.90;;;;;;5041799;28;19917;-67
2022/01/07 00:58:15;;;;;;;;;;;4.50;99.90;;;;;;5029040;28;19909;-69
2022/01/07 01:00:41;;;;;;;;;;;4.50;99.90;;;;;;5026738;28;20009;-70
2022/01/07 01:03:06;;;;;;;;;;;4.40;99.90;;;;;;5044873;28;20007;-70
2022/01/07 01:05:32;;;;;;;;;;;4.40;99.90;;;;;;5046274;28;20016;-70
2022/01/07 01:07:58;;;;;;;;;;;4.40;99.90;;;;;;5029919;28;20311;-70
2022/01/07 01:10:27;;;;;;;;;;;4.30;99.90;;;;;;5036837;28;20037;-70
2022/01/07 01:12:53;;;;;;;;;;;4.30;99.90;;;;;;5046365;28;20067;-68
2022/01/07 01:15:21;;;;;;;;;;;4.30;99.90;;;;;;5029729;28;19924;-68
2022/01/07 01:17:47;;;;;;;;;;;4.20;99.90;;;;;;5025132;28;19913;-72
2022/01/07 01:20:13;;;;;;;;;;;4.20;99.90;;;;;;5035905;28;19913;-72
2022/01/07 01:22:39;;;;;;;;;;;4.10;99.90;;;;;;5045049;28;19957;-68
2022/01/07 01:25:05;;;;;;;;;;;4.10;99.90;;;;;;5045306;28;20194;-70
2022/01/07 01:27:30;;;;;;;;;;;4.10;99.90;;;;;;5029408;28;19913;-70
2022/01/07 01:29:56;;;;;;;;;;;4.20;99.90;;;;;;5024844;28;19917;-70
2022/01/07 01:32:21;;;;;;;;;;;4.20;99.90;;;;;;5034264;28;19979;-69
2022/01/07 01:34:47;;;;;;;;;;;4.10;99.90;;;;;;5026384;28;19913;-69
2022/01/07 01:37:12;;;;;;;;;;;4.10;99.90;;;;;;5045863;28;19921;-69
2022/01/07 01:39:38;;;;;;;;;;;4.10;99.90;;;;;;5047503;28;20358;-69
2022/01/07 01:42:04;;;;;;;;;;;4.10;99.90;;;;;;5026241;28;19913;-69
2022/01/07 01:44:29;;;;;;;;;;;4.10;99.90;;;;;;5024897;28;20043;-68
2022/01/07 01:46:56;;;;;;;;;;;4.00;99.90;;;;;;5025419;28;19943;-69
2022/01/07 01:49:22;;;;;;;;;;;4.00;99.90;;;;;;5024341;28;19913;-70
2022/01/07 01:51:47;;;;;;;;;;;4.00;99.90;;;;;;5031114;28;19943;-70
2022/01/07 01:54:13;;;;;;;;;;;4.00;99.90;;;;;;5024745;28;19917;-68
2022/01/07 01:56:41;;;;;;;;;;;4.00;99.90;;;;;;5032635;28;20412;-69
2022/01/07 01:59:06;;;;;;;;;;;4.00;99.90;;;;;;5038074;28;19924;-69
2022/01/07 02:01:33;;;;;;;;;;;4.00;99.90;;;;;;5024726;28;20278;-70
2022/01/07 02:03:59;;;;;;;;;;;4.00;99.90;;;;;;5044515;28;20533;-70
2022/01/07 02:06:24;;;;;;;;;;;4.00;99.90;;;;;;5037017;28;19920;-70
2022/01/07 02:08:50;;;;;;;;;;;4.00;99.90;;;;;;5032898;28;19909;-68
2022/01/07 02:11:16;;;;;;;;;;;3.90;99.90;;;;;;5039070;28;20295;-69
2022/01/07 02:13:42;;;;;;;;;;;3.90;99.90;;;;;;5018189;28;19973;-68
2022/01/07 02:16:07;;;;;;;;;;;3.90;99.90;;;;;;5026159;28;20324;-67
2022/01/07 02:18:33;;;;;;;;;;;3.90;99.90;;;;;;5025753;28;20210;-70
2022/01/07 02:20:59;;;;;;;;;;;3.90;99.90;;;;;;5041709;28;19920;-72
2022/01/07 02:23:24;;;;;;;;;;;3.90;99.90;;;;;;5045624;28;19909;-70
2022/01/07 02:25:50;;;;;;;;;;;3.80;99.90;;;;;;5044258;28;19917;-71
2022/01/07 02:28:15;;;;;;;;;;;3.80;99.90;;;;;;5029392;28;20408;-70
2022/01/07 02:30:41;;;;;;;;;;;3.80;99.90;;;;;;5022858;28;19947;-70
2022/01/07 02:33:06;;;;;;;;;;;3.90;99.90;;;;;;5027956;28;19916;-71
2022/01/07 02:35:33;;;;;;;;;;;3.90;99.90;;;;;;5024832;28;19952;-71
2022/01/07 02:37:59;;;;;;;;;;;3.90;99.90;;;;;;5026291;28;19960;-69
2022/01/07 02:40:25;;;;;;;;;;;4.00;99.90;;;;;;5043739;28;20004;-71
2022/01/07 02:42:50;;;;;;;;;;;3.90;99.90;;;;;;5026291;28;20012;-69
2022/01/07 02:45:16;;;;;;;;;;;3.90;99.90;;;;;;5027125;28;19928;-70
2022/01/07 02:50:14;;;;;;;;;;;3.90;99.90;;;;;;5038391;28;19971;-70
2022/01/07 02:52:39;;;;;;;;;;;3.90;99.90;;;;;;5042135;28;19917;-68
2022/01/07 02:55:05;;;;;;;;;;;3.90;99.90;;;;;;5047673;28;19920;-71
2022/01/07 02:57:30;;;;;;;;;;;3.90;99.90;;;;;;5045684;28;20401;-69
2022/01/07 02:59:56;;;;;;;;;;;3.90;99.90;;;;;;5045154;28;20386;-69
2022/01/07 03:02:21;;;;;;;;;;;3.90;99.90;;;;;;5032540;28;20027;-69
2022/01/07 03:04:47;;;;;;;;;;;3.90;99.90;;;;;;5023560;28;20055;-69
2022/01/07 03:07:12;;;;;;;;;;;3.80;99.90;;;;;;5023454;28;20294;-71
2022/01/07 03:09:38;;;;;;;;;;;3.90;99.90;;;;;;5032965;28;19978;-68
2022/01/07 03:12:04;;;;;;;;;;;3.90;99.90;;;;;;5043508;28;19909;-69
2022/01/07 03:14:29;;;;;;;;;;;3.90;99.90;;;;;;5046471;28;19971;-71
2022/01/07 03:16:54;;;;;;;;;;;3.90;99.90;;;;;;5047724;28;20583;-68
2022/01/07 03:19:20;;;;;;;;;;;3.90;99.90;;;;;;5020686;28;19914;-70
2022/01/07 03:21:45;;;;;;;;;;;4.00;99.90;;;;;;5037267;28;20011;-74
2022/01/07 03:24:12;;;;;;;;;;;4.00;99.90;;;;;;5043845;28;19939;-71
2022/01/07 03:26:38;;;;;;;;;;;4.00;99.90;;;;;;5043548;28;19985;-75
2022/01/07 03:29:03;;;;;;;;;;;4.00;99.90;;;;;;5030193;28;19974;-73
2022/01/07 03:31:29;;;;;;;;;;;4.00;99.90;;;;;;5032933;28;19917;-77
2022/01/07 03:33:54;;;;;;;;;;;4.00;99.90;;;;;;5046127;28;19913;-72
2022/01/07 03:36:20;;;;;;;;;;;4.00;99.90;;;;;;5036136;28;20382;-67
2022/01/07 03:38:45;;;;;;;;;;;4.10;99.90;;;;;;5042289;28;19913;-69
2022/01/07 03:41:11;;;;;;;;;;;4.10;99.90;;;;;;5029757;28;19971;-73
2022/01/07 03:43:36;;;;;;;;;;;4.10;99.90;;;;;;5009679;28;19932;-72
2022/01/07 03:46:02;;;;;;;;;;;4.10;99.90;;;;;;5027153;28;19917;-69
2022/01/07 03:48:27;;;;;;;;;;;4.10;99.90;;;;;;5031801;28;19912;-69
2022/01/07 03:50:53;;;;;;;;;;;4.00;99.90;;;;;;5013662;28;19964;-68
2022/01/07 03:53:19;;;;;;;;;;;4.10;99.90;;;;;;5033207;28;20345;-68
2022/01/07 03:55:44;;;;;;;;;;;4.10;99.90;;;;;;5040231;28;19913;-70
2022/01/07 03:58:10;;;;;;;;;;;4.10;99.90;;;;;;5025875;28;20000;-70
2022/01/07 04:00:37;;;;;;;;;;;4.20;99.90;;;;;;5026677;28;20370;-70
2022/01/07 04:03:07;;;;;;;;;;;4.10;99.90;;;;;;5043815;28;19912;-73
2022/01/07 04:05:33;;;;;;;;;;;4.20;99.90;;;;;;5043918;28;19975;-68
2022/01/07 04:07:59;;;;;;;;;;;4.20;99.90;;;;;;5035317;28;19998;-71
2022/01/07 04:10:24;;;;;;;;;;;4.20;99.90;;;;;;5046224;28;19917;-68
2022/01/07 04:12:50;;;;;;;;;;;4.20;99.90;;;;;;5049570;28;20225;-72
2022/01/07 04:15:16;;;;;;;;;;;4.30;99.90;;;;;;5046234;28;19916;-70
2022/01/07 04:17:44;;;;;;;;;;;4.30;99.90;;;;;;5008472;28;20374;-70
2022/01/07 04:20:10;;;;;;;;;;;4.40;99.90;;;;;;5007277;28;19920;-69
2022/01/07 04:22:36;;;;;;;;;;;4.40;99.90;;;;;;5027138;28;19936;-68
2022/01/07 04:25:03;;;;;;;;;;;4.50;99.90;;;;;;5025082;28;20351;-69
2022/01/07 04:27:31;;;;;;;;;;;4.50;99.90;;;;;;5026907;28;19999;-70
2022/01/07 04:29:56;;;;;;;;;;;4.50;99.90;;;;;;5044519;28;19927;-70
2022/01/07 04:32:22;;;;;;;;;;;4.50;99.90;;;;;;5031412;28;19913;-72
2022/01/07 04:34:47;;;;;;;;;;;4.50;99.90;;;;;;5047912;28;19913;-70
2022/01/07 04:37:13;;;;;;;;;;;4.50;99.90;;;;;;5029210;28;19987;-68
2022/01/07 04:39:39;;;;;;;;;;;4.50;99.90;;;;;;5028213;28;20329;-70
2022/01/07 04:42:04;;;;;;;;;;;4.60;99.90;;;;;;5043024;28;19913;-70
2022/01/07 04:44:30;;;;;;;;;;;4.50;99.90;;;;;;5028101;28;19913;-68
2022/01/07 04:46:55;;;;;;;;;;;4.60;99.90;;;;;;5045163;28;19912;-71
2022/01/07 04:49:21;;;;;;;;;;;4.60;99.90;;;;;;5013644;28;19917;-69
2022/01/07 04:51:46;;;;;;;;;;;4.60;99.90;;;;;;5025996;28;19960;-67
2022/01/07 04:54:12;;;;;;;;;;;4.60;99.90;;;;;;5027048;28;20016;-68
2022/01/07 04:56:37;;;;;;;;;;;4.60;99.90;;;;;;5009640;28;20016;-69
2022/01/07 04:59:03;;;;;;;;;;;4.70;99.90;;;;;;5008777;28;19913;-69
2022/01/07 05:01:28;;;;;;;;;;;4.60;99.90;;;;;;5024477;28;20347;-70
2022/01/07 05:03:54;;;;;;;;;;;4.70;99.90;;;;;;5029472;28;19957;-71
2022/01/07 05:08:57;;;;;;;;;;;4.70;99.90;;;;;;5032316;28;20000;-68
2022/01/07 05:11:22;;;;;;;;;;;4.70;99.90;;;;;;5026472;28;19955;-70
2022/01/07 05:13:48;;;;;;;;;;;4.70;99.90;;;;;;5024966;28;20302;-70
2022/01/07 05:16:13;;;;;;;;;;;4.70;99.90;;;;;;5023945;28;19979;-69
2022/01/07 05:18:39;;;;;;;;;;;4.70;99.90;;;;;;5030956;28;19924;-69
2022/01/07 05:21:05;;;;;;;;;;;4.70;99.90;;;;;;5019263;28;20312;-73
2022/01/07 05:23:31;;;;;;;;;;;4.80;99.90;;;;;;5027434;28;19913;-70
2022/01/07 05:25:56;;;;;;;;;;;4.80;99.90;;;;;;5024564;28;19917;-70
2022/01/07 05:28:22;;;;;;;;;;;4.80;99.90;;;;;;5025421;28;19917;-71
2022/01/07 05:30:47;;;;;;;;;;;4.80;99.90;;;;;;5025353;28;19924;-70
2022/01/07 05:33:13;;;;;;;;;;;4.80;99.90;;;;;;5039718;28;19916;-68
2022/01/07 05:35:38;;;;;;;;;;;4.90;99.90;;;;;;5036221;28;21026;-71
2022/01/07 05:38:04;;;;;;;;;;;4.90;99.90;;;;;;5027871;28;19991;-68
2022/01/07 05:40:29;;;;;;;;;;;4.90;99.90;;;;;;5012643;28;19921;-70
2022/01/07 05:42:55;;;;;;;;;;;4.80;99.90;;;;;;5032052;28;20004;-69
2022/01/07 05:45:20;;;;;;;;;;;4.80;99.90;;;;;;5011210;28;19947;-71
2022/01/07 05:47:46;;;;;;;;;;;4.90;99.90;;;;;;5037386;28;19920;-71
2022/01/07 05:50:11;;;;;;;;;;;4.90;99.90;;;;;;5028703;28;19921;-71
2022/01/07 05:52:37;;;;;;;;;;;4.90;99.90;;;;;;5035145;28;20467;-69
2022/01/07 05:55:03;;;;;;;;;;;5.00;99.90;;;;;;5029009;28;19917;-69
2022/01/07 05:57:29;;;;;;;;;;;5.00;99.90;;;;;;5026520;28;19972;-71
2022/01/07 05:59:54;;;;;;;;;;;5.00;99.90;;;;;;5027376;28;20388;-70
2022/01/07 06:02:20;;;;;;;;;;;5.00;99.90;;;;;;5014499;28;19968;-70
2022/01/07 06:04:45;;;;;;;;;;;5.00;99.90;;;;;;5026360;28;20161;-68
2022/01/07 06:07:11;;;;;;;;;;;5.00;99.90;;;;;;5035563;28;19913;-70
2022/01/07 06:09:36;;;;;;;;;;;5.00;99.90;;;;;;5044000;28;19913;-69
2022/01/07 06:12:02;;;;;;;;;;;5.00;99.90;;;;;;5045711;28;20324;-67
2022/01/07 06:14:28;;;;;;;;;;;5.00;99.90;;;;;;5029084;28;20004;-68
2022/01/07 06:16:53;;;;;;;;;;;5.00;99.90;;;;;;5026147;28;19951;-69
2022/01/07 06:19:19;;;;;;;;;;;4.90;99.90;;;;;;5023159;28;19953;-72
2022/01/07 06:21:44;;;;;;;;;;;4.90;99.90;;;;;;5015832;28;20258;-70
2022/01/07 06:24:10;;;;;;;;;;;4.90;99.90;;;;;;5044946;28;20149;-78
2022/01/07 06:26:35;;;;;;;;;;;4.80;99.90;;;;;;5031668;28;20318;-71
2022/01/07 06:29:01;;;;;;;;;;;4.80;99.90;;;;;;5018900;28;19996;-70
2022/01/07 06:31:26;;;;;;;;;;;4.80;99.90;;;;;;5015853;28;19914;-69
2022/01/07 06:33:52;;;;;;;;;;;4.80;99.90;;;;;;5019797;28;19931;-70
2022/01/07 06:36:17;;;;;;;;;;;4.80;99.90;;;;;;5019317;28;20145;-71
2022/01/07 06:38:43;;;;;;;;;;;4.80;99.90;;;;;;5025290;28;19916;-70
2022/01/07 06:41:08;;;;;;;;;;;4.80;99.90;;;;;;5024336;28;19913;-69
2022/01/07 06:43:34;;;;;;;;;;;4.90;99.90;;;;;;5016150;28;19980;-69
2022/01/07 06:45:59;;;;;;;;;;;4.80;99.90;;;;;;5033700;28;19913;-68
2022/01/07 06:48:25;;;;;;;;;;;4.90;99.90;;;;;;5045274;28;19915;-72
2022/01/07 06:50:50;;;;;;;;;;;4.90;99.90;;;;;;5039325;28;19944;-72
2022/01/07 06:53:16;;;;;;;;;;;4.90;99.90;;;;;;5030763;28;19963;-70
2022/01/07 06:55:41;;;;;;;;;;;4.90;99.90;;;;;;5021821;28;19917;-69
2022/01/07 06:58:07;;;;;;;;;;;4.90;99.90;;;;;;5024153;28;19909;-71
2022/01/07 07:00:32;;;;;;;;;;;5.00;99.90;;;;;;5029966;28;20266;-69
2022/01/07 07:02:58;;;;;;;;;;;5.00;99.90;;;;;;5017438;28;20173;-72
2022/01/07 07:05:24;;;;;;;;;;;5.00;99.90;;;;;;5022527;28;20437;-69
2022/01/07 07:07:50;;;;;;;;;;;5.00;99.90;;;;;;5019754;28;19940;-69
2022/01/07 07:10:15;;;;;;;;;;;4.90;99.90;;;;;;5019418;28;20452;-70
2022/01/07 07:12:41;;;;;;;;;;;4.90;99.90;;;;;;5020357;28;19955;-73
2022/01/07 07:15:06;;;;;;;;;;;4.90;99.90;;;;;;5044259;28;20517;-69
2022/01/07 07:17:32;;;;;;;;;;;4.90;99.90;;;;;;5048788;28;20018;-73
2022/01/07 07:19:57;;;;;;;;;;;4.90;99.90;;;;;;5016424;28;19920;-70
2022/01/07 07:22:23;;;;;;;;;;;4.90;99.90;;;;;;5032297;28;20299;-68
2022/01/07 07:24:48;;;;;;;;;;;4.80;99.90;;;;;;5015595;28;19928;-69
2022/01/07 07:27:14;;;;;;;;;;;4.90;99.90;;;;;;5034910;28;20008;-69
2022/01/07 07:29:39;;;;;;;;;;;4.80;99.90;;;;;;5042156;28;19917;-71
2022/01/07 07:32:08;;;;;;;;;;;4.80;99.90;;;;;;5045937;28;19987;-69
2022/01/07 07:37:05;;;;;;;;;;;4.80;99.90;;;;;;5023523;28;20008;-70
2022/01/07 07:39:31;;;;;;;;;;;4.70;99.90;;;;;;5044546;28;19987;-68
2022/01/07 07:41:57;;;;;;;;;;;4.80;99.90;;;;;;5050395;28;19915;-69
2022/01/07 07:44:23;;;;;;;;;;;4.90;99.90;;;;;;5042032;28;19916;-67
2022/01/07 07:46:48;;;;;;;;;;;4.90;99.90;;;;;;5029453;28;19940;-69
2022/01/07 07:49:14;;;;;;;;;;;4.90;99.90;;;;;;5027721;28;19917;-70
2022/01/07 07:51:40;;;;;;;;;;;4.90;99.90;;;;;;5027141;28;19988;-69
2022/01/07 07:54:07;;;;;;;;;;;4.90;99.90;;;;;;5028525;28;19952;-68
2022/01/07 07:56:33;;;;;;;;;;;4.80;99.90;;;;;;5020193;28;20397;-69
2022/01/07 07:58:59;;;;;;;;;;;4.90;99.90;;;;;;5029788;28;20370;-69
2022/01/07 08:01:25;;;;;;;;;;;4.90;99.90;;;;;;5030508;28;19917;-69
2022/01/07 08:03:50;;;;;;;;;;;4.90;99.90;;;;;;5028436;28;19998;-72
2022/01/07 08:06:16;;;;;;;;;;;4.90;99.90;;;;;;5027603;28;19917;-72
2022/01/07 08:08:42;;;;;;;;;;;4.80;99.90;;;;;;5027728;28;20701;-68
2022/01/07 08:11:10;;;;;;;;;;;4.80;99.90;;;;;;5027829;28;20004;-68
2022/01/07 08:16:20;;;;;;;;;;;4.80;99.90;;;;;;5026658;28;20444;-69
2022/01/07 08:18:49;;;;;;;;;;;4.80;99.90;;;;;;5028687;28;19920;-68
2022/01/07 08:21:15;;;;;;;;;;;4.80;99.90;;;;;;5026727;28;19920;-70
2022/01/07 08:23:41;;;;;;;;;;;4.80;99.90;;;;;;5029874;28;20085;-70
2022/01/07 08:26:09;;;;;;;;;;;4.80;99.90;;;;;;5030761;28;20382;-70
2022/01/07 08:29:00;;;;;;;;;;;4.80;99.90;;;;;;5030359;28;20421;-69
2022/01/07 08:36:42;;;;;;;;;;;4.70;99.90;;;;;;5028226;28;19979;-69
2022/01/07 08:39:09;;;;;;;;;;;4.80;99.90;;;;;;5028239;28;20023;-69
2022/01/07 08:41:35;;;;;;;;;;;4.80;99.90;;;;;;5028919;28;19984;-68
2022/01/07 08:44:01;;;;;;;;;;;4.80;99.90;;;;;;5028926;28;19993;-69
2022/01/07 08:46:26;;;;;;;;;;;4.80;99.90;;;;;;5028302;28;19952;-72
2022/01/07 08:48:52;;;;;;;;;;;4.80;99.90;;;;;;5010508;28;19940;-72
2022/01/07 08:51:17;;;;;;;;;;;4.70;99.90;;;;;;5029818;28;19919;-69
2022/01/07 08:53:43;;;;;;;;;;;4.80;99.90;;;;;;5028961;28;19959;-69
2022/01/07 08:56:09;;;;;;;;;;;4.80;99.90;;;;;;5028930;28;19996;-69
2022/01/07 08:58:34;;;;;;;;;;;4.80;99.90;;;;;;5011127;28;19909;-70
2022/01/07 09:01:00;;;;;;;;;;;4.80;99.90;;;;;;5029169;28;19916;-68
2022/01/07 09:03:26;;;;;;;;;;;4.80;99.90;;;;;;5016797;28;19909;-69
2022/01/07 09:05:52;;;;;;;;;;;4.90;99.90;;;;;;5030582;28;19918;-70
2022/01/07 09:08:17;;;;;;;;;;;4.90;99.90;;;;;;5039998;28;19921;-67
2022/01/07 09:10:43;;;;;;;;;;;5.00;99.90;;;;;;5030385;28;19980;-70
2022/01/07 09:13:09;;;;;;;;;;;5.00;99.90;;;;;;5036788;28;19981;-68
2022/01/07 09:15:34;;;;;;;;;;;5.00;99.90;;;;;;5040467;28;19956;-71
2022/01/07 09:18:09;;;;;;;;;;;5.00;99.90;;;;;;5014397;28;19909;-73
2022/01/07 09:20:35;;;;;;;;;;;5.00;99.90;;;;;;5012802;28;20374;-69
2022/01/07 09:23:00;;;;;;;;;;;5.00;99.90;;;;;;5045456;28;19976;-72
2022/01/07 09:25:26;;;;;;;;;;;5.00;99.90;;;;;;5035941;28;20434;-71
2022/01/07 09:27:51;;;;;;;;;;;5.00;99.90;;;;;;5041487;28;19913;-70
2022/01/07 09:30:17;;;;;;;;;;;5.10;99.90;;;;;;5027192;28;19925;-70
2022/01/07 09:32:42;;;;;;;;;;;5.10;99.90;;;;;;5028727;28;20533;-67
2022/01/07 09:35:08;;;;;;;;;;;5.10;99.90;;;;;;5012299;28;20610;-71
2022/01/07 09:37:35;;;;;;;;;;;5.10;99.90;;;;;;5048258;28;19931;-68
2022/01/07 09:40:00;;;;;;;;;;;5.10;99.90;;;;;;5030221;28;19913;-72
2022/01/07 09:42:27;;;;;;;;;;;5.10;99.90;;;;;;5030043;28;19909;-72
2022/01/07 09:44:52;;;;;;;;;;;5.10;99.90;;;;;;5026618;28;19965;-70
2022/01/07 09:47:18;;;;;;;;;;;5.10;99.90;;;;;;5026929;28;20252;-71
2022/01/07 09:49:43;;;;;;;;;;;5.20;99.90;;;;;;5025588;28;20018;-70
2022/01/07 09:52:09;;;;;;;;;;;5.20;99.90;;;;;;5026509;28;19916;-69
2022/01/07 09:54:37;;;;;;;;;;;5.20;99.90;;;;;;5025319;28;19913;-70
2022/01/07 09:57:04;;;;;;;;;;;5.20;99.90;;;;;;5028152;28;19913;-70
2022/01/07 09:59:29;;;;;;;;;;;5.30;99.90;;;;;;5026582;28;19909;-68
2022/01/07 10:01:56;;;;;;;;;;;5.30;99.90;;;;;;5026847;28;20351;-69
2022/01/07 10:04:27;;;;;;;;;;;5.30;99.90;;;;;;5026866;28;20381;-71
2022/01/07 10:07:09;;;;;;;;;;;5.40;99.90;;;;;;5025542;28;19932;-71
2022/01/07 10:09:35;;;;;;;;;;;5.40;99.90;;;;;;5025557;28;19983;-69
2022/01/07 10:12:00;;;;;;;;;;;5.50;99.90;;;;;;5025204;28;20074;-71
2022/01/07 10:14:26;;;;;;;;;;;5.60;99.90;;;;;;5025901;28;20359;-71
2022/01/07 10:16:55;;;;;;;;;;;5.60;99.90;;;;;;5027570;28;19917;-70
2022/01/07 10:19:38;;;;;;;;;;;5.60;99.90;;;;;;5027373;28;19916;-70
2022/01/07 10:22:05;;;;;;;;;;;5.50;99.90;;;;;;5028087;28;19915;-70
2022/01/07 10:24:31;;;;;;;;;;;5.50;99.90;;;;;;5031462;28;19947;-70
2022/01/07 10:27:10;;;;;;;;;;;5.60;99.90;;;;;;5032133;28;19939;-71
2022/01/07 10:29:40;;;;;;;;;;;5.60;99.90;;;;;;5040295;28;19916;-72
2022/01/07 10:32:23;;;;;;;;;;;5.70;99.90;;;;;;5045517;28;19991;-69
2022/01/07 10:35:07;;;;;;;;;;;5.70;99.90;;;;;;5031681;28;19909;-69
2022/01/07 10:37:33;;;;;;;;;;;5.70;99.90;;;;;;5031181;28;19944;-72
2022/01/07 10:39:59;;;;;;;;;;;5.80;99.90;;;;;;5013771;28;19910;-70
2022/01/07 10:42:25;;;;;;;;;;;5.90;99.90;;;;;;5012943;28;20007;-70
2022/01/07 10:45:00;;;;;;;;;;;6.00;99.90;;;;;;5029883;28;19989;-71
2022/01/07 10:47:28;;;;;;;;;;;5.90;99.90;;;;;;5011690;28;19909;-71
2022/01/07 10:50:12;;;;;;;;;;;6.00;99.90;;;;;;5022655;28;20429;-70
2022/01/07 10:52:37;;;;;;;;;;;6.00;99.90;;;;;;5030803;28;20025;-71
2022/01/07 10:55:07;;;;;;;;;;;6.10;99.90;;;;;;5014579;28;20406;-70
2022/01/07 10:57:44;;;;;;;;;;;6.10;99.90;;;;;;5035443;28;20055;-71
2022/01/07 11:00:09;;;;;;;;;;;6.20;99.90;;;;;;5032033;28;20084;-71
2022/01/07 11:02:35;;;;;;;;;;;6.10;99.90;;;;;;5031421;28;19917;-68
2022/01/07 11:05:03;;;;;;;;;;;6.10;99.90;;;;;;5030597;28;19924;-71
2022/01/07 11:07:29;;;;;;;;;;;6.10;99.90;;;;;;5031931;28;19919;-70
2022/01/07 11:09:57;;;;;;;;;;;6.10;99.90;;;;;;5035965;28;19913;-70
2022/01/07 11:12:23;;;;;;;;;;;6.20;99.90;;;;;;5037040;28;19917;-68
2022/01/07 11:14:48;;;;;;;;;;;6.30;99.90;;;;;;5017195;28;20083;-70
2022/01/07 11:17:23;;;;;;;;;;;6.30;99.90;;;;;;5033614;28;19936;-69
2022/01/07 11:19:53;;;;;;;;;;;6.40;99.90;;;;;;5030240;28;20170;-69
2022/01/07 11:22:21;;;;;;;;;;;6.40;99.90;;;;;;5030504;28;20077;-71
2022/01/07 11:24:50;;;;;;;;;;;6.40;99.90;;;;;;5030677;28;19924;-72
2022/01/07 11:27:23;;;;;;;;;;;6.50;99.90;;;;;;5030215;28;19917;-73
2022/01/07 11:29:54;;;;;;;;;;;6.40;99.90;;;;;;4972424;28;1773817;-71
2022/01/07 11:32:25;;;;;;;;;;;6.40;99.90;;;;;;5034550;28;19913;-68
2022/01/07 11:34:51;;;;;;;;;;;6.50;99.90;;;;;;5012425;28;20254;-72
2022/01/07 11:37:46;;;;;;;;;;;6.40;99.90;;;;;;5031899;28;19909;-71
2022/01/07 11:40:31;;;;;;;;;;;6.40;99.90;;;;;;5016328;28;19959;-69
2022/01/07 11:43:00;;;;;;;;;;;6.50;99.90;;;;;;5029385;28;19974;-70
2022/01/07 11:45:27;;;;;;;;;;;6.60;99.90;;;;;;5029086;28;19920;-70
2022/01/07 11:47:53;;;;;;;;;;;6.60;99.90;;;;;;5029552;28;20221;-70
2022/01/07 11:50:18;;;;;;;;;;;6.50;99.90;;;;;;5030007;28;20366;-71
2022/01/07 11:52:55;;;;;;;;;;;6.50;99.90;;;;;;5029559;28;19916;-69
2022/01/07 11:55:24;;;;;;;;;;;6.50;99.90;;;;;;5028026;28;19924;-70
2022/01/07 11:57:50;;;;;;;;;;;6.60;99.90;;;;;;5029980;28;19916;-70
2022/01/07 12:00:36;;;;;;;;;;;6.70;99.90;;;;;;5011642;28;19909;-72
2022/01/07 12:03:02;;;;;;;;;;;6.70;99.90;;;;;;5014496;28;19909;-69
2022/01/07 12:05:29;;;;;;;;;;;6.70;99.90;;;;;;5029899;28;20019;-70
2022/01/07 12:07:54;;;;;;;;;;;6.60;99.90;;;;;;5029699;28;19909;-69
2022/01/07 12:10:20;;;;;;;;;;;6.70;99.90;;;;;;5029929;28;19920;-70
2022/01/07 12:12:46;;;;;;;;;;;6.70;99.90;;;;;;5037523;28;19913;-71
2022/01/07 12:15:11;;;;;;;;;;;6.70;99.90;;;;;;5033000;28;19971;-68
2022/01/07 12:17:37;;;;;;;;;;;6.70;99.90;;;;;;5033123;28;19963;-71
2022/01/07 12:20:35;;;;;;;;;;;6.60;99.90;;;;;;5029847;28;19909;-71
2022/01/07 12:23:00;;;;;;;;;;;6.60;99.90;;;;;;4979327;28;19913;-71
2022/01/07 12:25:26;;;;;;;;;;;6.70;99.90;;;;;;5030190;28;19935;-73
2022/01/07 12:27:59;;;;;;;;;;;6.80;99.90;;;;;;5029223;28;19967;-70
2022/01/07 12:30:24;;;;;;;;;;;6.70;99.90;;;;;;5028697;28;19917;-71
2022/01/07 12:32:50;;;;;;;;;;;6.70;99.90;;;;;;5028770;28;20313;-71
2022/01/07 12:35:15;;;;;;;;;;;6.80;99.90;;;;;;5028942;28;19915;-70
2022/01/07 12:37:41;;;;;;;;;;;6.80;99.90;;;;;;5011299;28;19920;-69
2022/01/07 12:40:08;;;;;;;;;;;6.90;99.90;;;;;;5029246;28;19952;-70
2022/01/07 12:42:42;;;;;;;;;;;6.90;99.90;;;;;;5029334;28;19992;-70
2022/01/07 12:45:12;;;;;;;;;;;6.90;99.90;;;;;;5027842;28;19913;-70
2022/01/07 12:47:37;;;;;;;;;;;6.80;99.90;;;;;;5029342;28;19909;-72
2022/01/07 12:50:04;;;;;;;;;;;6.60;99.90;;;;;;5030126;28;19909;-72
2022/01/07 12:52:31;;;;;;;;;;;6.60;99.90;;;;;;5029458;28;19909;-69
2022/01/07 12:55:06;;;;;;;;;;;6.70;99.90;;;;;;5029408;28;19920;-73
2022/01/07 12:57:34;;;;;;;;;;;6.80;99.90;;;;;;5026553;28;19963;-70
2022/01/07 13:00:08;;;;;;;;;;;6.80;99.90;;;;;;5028574;28;19920;-76
2022/01/07 13:02:34;;;;;;;;;;;6.80;99.90;;;;;;5029182;28;19967;-70
2022/01/07 13:05:35;;;;;;;;;;;6.80;99.90;;;;;;5030001;28;19985;-70
2022/01/07 13:08:06;;;;;;;;;;;6.70;99.90;;;;;;5006196;28;19915;-70
2022/01/07 13:10:33;;;;;;;;;;;6.70;99.90;;;;;;5043191;28;19909;-74
2022/01/07 13:13:06;;;;;;;;;;;6.80;99.90;;;;;;5034089;28;20278;-68
2022/01/07 13:15:35;;;;;;;;;;;6.70;99.90;;;;;;5029420;28;20443;-72
2022/01/07 13:18:14;;;;;;;;;;;6.60;99.90;;;;;;4991300;28;19910;-71
2022/01/07 13:20:39;;;;;;;;;;;6.50;99.90;;;;;;5007956;28;19909;-70
2022/01/07 13:23:05;;;;;;;;;;;6.60;99.90;;;;;;5009495;28;19909;-72
2022/01/07 13:25:31;;;;;;;;;;;6.60;99.90;;;;;;5028991;28;20008;-72
2022/01/07 13:27:57;;;;;;;;;;;6.80;99.90;;;;;;5032302;28;19909;-70
2022/01/07 13:30:34;;;;;;;;;;;7.00;99.90;;;;;;5046215;28;19996;-73
2022/01/07 13:33:10;;;;;;;;;;;7.00;99.90;;;;;;5026619;28;19910;-71
2022/01/07 13:35:36;;;;;;;;;;;7.00;99.90;;;;;;5024452;28;19968;-70
2022/01/07 13:38:03;;;;;;;;;;;7.10;99.90;;;;;;5016879;28;20015;-72
2022/01/07 13:40:34;;;;;;;;;;;7.00;99.90;;;;;;5029664;28;19980;-71
2022/01/07 13:43:07;;;;;;;;;;;7.00;99.90;;;;;;5043944;28;19988;-71
2022/01/07 13:45:33;;;;;;;;;;;7.00;99.90;;;;;;5048787;28;19916;-70
2022/01/07 13:48:25;;;;;;;;;;;6.80;99.90;;;;;;5049261;28;19908;-71
2022/01/07 13:50:50;;;;;;;;;;;6.70;99.90;;;;;;5029331;28;19959;-71
2022/01/07 13:53:17;;;;;;;;;;;6.60;99.90;;;;;;5049940;28;19936;-68
2022/01/07 13:55:43;;;;;;;;;;;6.60;99.90;;;;;;5050265;28;20382;-69
2022/01/07 13:58:09;;;;;;;;;;;6.50;99.90;;;;;;5049334;28;19909;-70
2022/01/07 14:00:39;;;;;;;;;;;6.50;99.90;;;;;;5049240;28;19915;-74
2022/01/07 14:03:05;;;;;;;;;;;6.50;99.90;;;;;;5048550;28;19939;-71
2022/01/07 14:05:31;;;;;;;;;;;6.50;99.90;;;;;;5048478;28;19924;-69
2022/01/07 14:07:57;;;;;;;;;;;6.50;99.90;;;;;;5048128;28;19909;-71
2022/01/07 14:10:27;;;;;;;;;;;6.50;99.90;;;;;;5030240;28;19928;-67
2022/01/07 14:12:53;;;;;;;;;;;6.50;99.90;;;;;;5048396;28;19948;-71
2022/01/07 14:15:22;;;;;;;;;;;6.50;99.90;;;;;;5049070;28;19913;-71
2022/01/07 14:17:48;;;;;;;;;;;6.40;99.90;;;;;;5047873;28;19909;-73
2022/01/07 14:20:14;;;;;;;;;;;6.40;99.90;;;;;;5030866;28;20171;-72
2022/01/07 14:22:42;;;;;;;;;;;6.30;99.90;;;;;;5049161;28;20402;-74
2022/01/07 14:25:15;;;;;;;;;;;6.10;99.90;;;;;;5048897;28;20575;-69
2022/01/07 14:27:42;;;;;;;;;;;6.00;99.90;;;;;;5048829;28;19920;-71
2022/01/07 14:30:09;;;;;;;;;;;5.90;99.90;;;;;;5048602;28;19917;-71
2022/01/07 14:32:34;;;;;;;;;;;5.80;99.90;;;;;;5039816;28;20630;-70
2022/01/07 14:35:00;;;;;;;;;;;5.80;99.90;;;;;;5029206;28;19909;-70
2022/01/07 14:37:27;;;;;;;;;;;5.70;99.90;;;;;;5046504;28;19909;-73
2022/01/07 14:39:54;;;;;;;;;;;5.70;99.90;;;;;;5046306;28;19913;-73
2022/01/07 14:42:19;;;;;;;;;;;5.70;99.90;;;;;;5047630;28;19920;-70
2022/01/07 14:44:45;;;;;;;;;;;5.80;99.90;;;;;;5048694;28;19912;-72